createdAt,value
2023-01-26T00:00:04.736Z,99330.94
2023-01-26T00:02:27.939Z,99331.04
2023-01-26T00:04:30.869Z,99329.50
2023-01-26T00:06:34.579Z,99327.66
2023-01-26T00:08:38.544Z,99325.46
2023-01-26T00:10:42.361Z,99321.79
2023-01-26T00:12:45.251Z,99316.69
2023-01-26T00:14:52.425Z,99316.34
2023-01-26T00:16:55.517Z,99311.19
2023-01-26T00:18:58.261Z,99312.38
2023-01-26T00:21:02.968Z,99308.66
2023-01-26T00:23:06.147Z,99311.58
2023-01-26T00:25:09.729Z,99304.42
2023-01-26T00:27:12.389Z,99301.63
2023-01-26T00:29:15.039Z,99298.09
2023-01-26T00:31:26.067Z,99292.70
2023-01-26T00:33:30.182Z,99294.50
2023-01-26T00:35:34.314Z,99296.17
2023-01-26T00:37:38.176Z,99294.48
2023-01-26T00:39:42.126Z,99291.55
2023-01-26T00:42:03.919Z,99292.65
2023-01-26T00:44:06.916Z,99291.98
2023-01-26T00:46:11.087Z,99289.38
2023-01-26T00:48:14.659Z,99287.35
2023-01-26T00:50:17.597Z,99284.23
2023-01-26T00:52:20.311Z,99287.08
2023-01-26T00:54:23.281Z,99284.93
2023-01-26T00:56:28.201Z,99280.70
2023-01-26T00:58:32.221Z,99277.35
2023-01-26T01:00:37.337Z,99277.39
2023-01-26T01:02:41.488Z,99270.56
2023-01-26T01:04:44.378Z,99272.63
2023-01-26T01:06:48.185Z,99274.80
2023-01-26T01:08:51.758Z,99270.32
2023-01-26T01:11:09.197Z,99271.31
2023-01-26T01:13:11.914Z,99270.14
2023-01-26T01:15:16.781Z,99266.79
2023-01-26T01:17:19.693Z,99268.94
2023-01-26T01:19:22.440Z,99270.30
2023-01-26T01:21:26.047Z,99268.44
2023-01-26T01:23:29.325Z,99264.58
2023-01-26T01:25:31.983Z,99260.48
2023-01-26T01:27:34.703Z,99262.35
2023-01-26T01:29:37.709Z,99259.84
2023-01-26T01:31:41.555Z,99255.15
2023-01-26T01:33:46.691Z,99254.64
2023-01-26T01:36:01.413Z,99254.36
2023-01-26T01:38:06.134Z,99250.67
2023-01-26T01:40:13.342Z,99249.87
2023-01-26T01:42:16.457Z,99246.90
2023-01-26T01:44:22.883Z,99243.30
2023-01-26T01:46:35.841Z,99241.75
2023-01-26T01:49:07.069Z,99243.02
2023-01-26T01:51:24.221Z,99239.73
2023-01-26T01:53:32.215Z,99238.90
2023-01-26T01:55:35.819Z,99233.46
2023-01-26T01:57:53.027Z,99232.67
2023-01-26T02:00:08.243Z,99231.43
2023-01-26T02:02:18.356Z,99231.58
2023-01-26T02:04:23.911Z,99229.86
2023-01-26T02:06:51.770Z,99228.99
2023-01-26T02:08:56.669Z,99226.70
2023-01-26T02:11:04.793Z,99227.89
2023-01-26T02:13:07.594Z,99226.85
2023-01-26T02:15:11.196Z,99225.14
2023-01-26T02:17:14.445Z,99219.94
2023-01-26T02:20:06.009Z,99213.52
2023-01-26T02:22:22.560Z,99211.92
2023-01-26T02:24:35.691Z,99207.59
2023-01-26T02:26:38.874Z,99201.64
2023-01-26T02:28:44.683Z,99196.42
2023-01-26T02:30:48.046Z,99194.26
2023-01-26T02:32:51.538Z,99192.60
2023-01-26T02:34:58.238Z,99187.44
2023-01-26T02:37:01.286Z,99185.85
2023-01-26T02:39:22.460Z,99188.48
2023-01-26T02:41:44.917Z,99184.27
2023-01-26T02:43:48.947Z,99182.74
2023-01-26T02:45:54.999Z,99180.44
2023-01-26T02:47:59.768Z,99177.50
2023-01-26T02:50:02.672Z,99173.65
2023-01-26T02:52:06.721Z,99176.59
2023-01-26T02:54:39.555Z,99174.66
2023-01-26T02:56:42.513Z,99177.09
2023-01-26T02:58:46.204Z,99176.41
2023-01-26T03:00:49.070Z,99174.44
2023-01-26T03:02:54.213Z,99175.30
2023-01-26T03:04:57.077Z,99173.09
2023-01-26T03:07:00.340Z,99171.04
2023-01-26T03:09:04.063Z,99172.22
2023-01-26T03:11:08.815Z,99168.80
2023-01-26T03:13:11.769Z,99176.25
2023-01-26T03:15:33.616Z,99173.13
2023-01-26T03:17:37.448Z,99171.98
2023-01-26T03:19:58.967Z,99166.39
2023-01-26T03:22:20.950Z,99165.79
2023-01-26T03:24:42.601Z,99165.16
2023-01-26T03:27:04.457Z,99163.30
2023-01-26T03:29:07.738Z,99162.23
2023-01-26T03:31:10.463Z,99159.73
2023-01-26T03:33:13.573Z,99162.73
2023-01-26T03:35:22.828Z,99161.52
2023-01-26T03:37:25.880Z,99161.91
2023-01-26T03:39:55.481Z,99159.78
2023-01-26T03:42:18.798Z,99156.61
2023-01-26T03:44:40.226Z,99160.23
2023-01-26T03:47:01.747Z,99157.54
2023-01-26T03:49:23.079Z,99160.19
2023-01-26T03:51:48.575Z,99156.59
2023-01-26T03:54:11.546Z,99159.81
2023-01-26T03:56:18.130Z,99164.89
2023-01-26T03:58:21.766Z,99162.63
2023-01-26T04:00:25.548Z,99163.30
2023-01-26T04:02:47.912Z,99160.37
2023-01-26T04:05:11.132Z,99155.55
2023-01-26T04:07:33.793Z,99156.02
2023-01-26T04:09:41.508Z,99153.32
2023-01-26T04:11:47.485Z,99149.65
2023-01-26T04:14:09.208Z,99146.35
2023-01-26T04:16:30.935Z,99144.77
2023-01-26T04:18:52.333Z,99142.46
2023-01-26T04:21:14.195Z,99140.91
2023-01-26T04:23:19.633Z,99139.08
2023-01-26T04:25:23.485Z,99136.00
2023-01-26T04:27:26.491Z,99136.23
2023-01-26T04:29:30.424Z,99137.34
2023-01-26T04:31:37.006Z,99135.55
2023-01-26T04:33:40.252Z,99130.61
2023-01-26T04:35:43.900Z,99129.71
2023-01-26T04:37:48.148Z,99125.35
2023-01-26T04:39:52.239Z,99126.30
2023-01-26T04:41:57.014Z,99126.95
2023-01-26T04:44:00.162Z,99124.36
2023-01-26T04:46:07.187Z,99124.26
2023-01-26T04:48:11.831Z,99122.06
2023-01-26T04:50:14.916Z,99123.92
2023-01-26T04:52:18.590Z,99123.64
2023-01-26T04:54:22.100Z,99126.61
2023-01-26T04:56:28.935Z,99122.48
2023-01-26T04:58:34.274Z,99125.19
2023-01-26T05:00:44.248Z,99128.96
2023-01-26T05:02:54.328Z,99129.11
2023-01-26T05:04:57.224Z,99128.30
2023-01-26T05:07:00.619Z,99130.61
2023-01-26T05:09:05.449Z,99126.14
2023-01-26T05:11:12.069Z,99126.44
2023-01-26T05:13:44.433Z,99122.61
2023-01-26T05:15:53.088Z,99125.79
2023-01-26T05:18:11.592Z,99129.02
2023-01-26T05:20:23.520Z,99131.66
2023-01-26T05:22:38.532Z,99133.96
2023-01-26T05:25:07.227Z,99136.44
2023-01-26T05:27:23.844Z,99134.88
2023-01-26T05:29:33.716Z,99133.23
2023-01-26T05:31:37.772Z,99132.23
2023-01-26T05:33:41.371Z,99131.30
2023-01-26T05:35:45.770Z,99131.28
2023-01-26T05:37:48.987Z,99129.96
2023-01-26T05:39:53.125Z,99130.66
2023-01-26T05:41:57.045Z,99131.72
2023-01-26T05:44:13.627Z,99135.03
2023-01-26T05:46:30.015Z,99137.63
2023-01-26T05:48:33.787Z,99139.58
2023-01-26T05:50:37.282Z,99142.34
2023-01-26T05:52:57.181Z,99142.73
2023-01-26T05:55:00.093Z,99139.02
2023-01-26T05:57:03.563Z,99139.42
2023-01-26T05:59:07.321Z,99139.13
2023-01-26T06:01:10.072Z,99141.20
2023-01-26T06:03:18.440Z,99142.23
2023-01-26T06:05:25.807Z,99145.70
2023-01-26T06:07:30.339Z,99146.42
2023-01-26T06:09:54.355Z,99148.11
2023-01-26T06:12:18.748Z,99147.12
2023-01-26T06:14:41.906Z,99142.78
2023-01-26T06:16:44.739Z,99148.85
2023-01-26T06:18:49.951Z,99152.35
2023-01-26T06:20:53.723Z,99150.23
2023-01-26T06:22:59.998Z,99151.89
2023-01-26T06:25:04.054Z,99153.75
2023-01-26T06:27:11.896Z,99150.23
2023-01-26T06:29:15.230Z,99151.55
2023-01-26T06:31:19.420Z,99146.42
2023-01-26T06:33:23.326Z,99150.55
2023-01-26T06:35:26.766Z,99147.25
2023-01-26T06:37:32.052Z,99145.27
2023-01-26T06:39:34.765Z,99143.25
2023-01-26T06:41:37.655Z,99145.44
2023-01-26T06:43:45.790Z,99147.16
2023-01-26T06:45:50.892Z,99143.71
2023-01-26T06:47:55.795Z,99148.84
2023-01-26T06:49:59.118Z,99145.90
2023-01-26T06:52:30.090Z,99144.40
2023-01-26T06:54:37.606Z,99144.88
2023-01-26T06:57:09.505Z,99147.74
2023-01-26T06:59:24.953Z,99145.58
2023-01-26T07:01:51.776Z,99139.04
2023-01-26T07:03:55.576Z,99139.22
2023-01-26T07:05:58.301Z,99144.54
2023-01-26T07:08:02.344Z,99135.94
2023-01-26T07:10:08.391Z,99133.92
2023-01-26T07:12:11.396Z,99129.38
2023-01-26T07:14:14.404Z,99132.29
2023-01-26T07:16:18.386Z,99134.39
2023-01-26T07:18:21.058Z,99134.75
2023-01-26T07:20:24.701Z,99134.71
2023-01-26T07:22:27.515Z,99137.86
2023-01-26T07:24:32.868Z,99136.23
2023-01-26T07:26:36.993Z,99138.64
2023-01-26T07:28:40.617Z,99138.83
2023-01-26T07:30:43.969Z,99143.51
2023-01-26T07:32:47.074Z,99141.20
2023-01-26T07:34:50.055Z,99136.16
2023-01-26T07:37:30.374Z,99142.59
2023-01-26T07:39:35.128Z,99144.38
2023-01-26T07:41:38.423Z,99144.58
2023-01-26T07:44:00.433Z,99139.05
2023-01-26T07:46:04.064Z,99140.92
2023-01-26T07:48:09.807Z,99141.66
2023-01-26T07:50:14.852Z,99144.06
2023-01-26T07:52:19.856Z,99141.21
2023-01-26T07:54:22.793Z,99143.16
2023-01-26T07:56:25.715Z,99146.70
2023-01-26T07:58:30.656Z,99144.48
2023-01-26T08:00:37.724Z,99142.85
2023-01-26T08:02:40.456Z,99149.54
2023-01-26T08:04:43.762Z,99144.48
2023-01-26T08:06:46.882Z,99142.52
2023-01-26T08:08:54.027Z,99143.04
2023-01-26T08:10:58.735Z,99146.79
2023-01-26T08:13:01.765Z,99143.63
2023-01-26T08:15:04.989Z,99146.17
2023-01-26T08:17:10.042Z,99149.20
2023-01-26T08:19:13.531Z,99146.71
2023-01-26T08:21:21.031Z,99146.02
2023-01-26T08:23:25.745Z,99143.85
2023-01-26T08:25:28.466Z,99143.73
2023-01-26T08:27:32.230Z,99142.11
2023-01-26T08:29:34.887Z,99139.55
2023-01-26T08:31:38.360Z,99139.93
2023-01-26T08:33:43.268Z,99145.25
2023-01-26T08:35:46.068Z,99142.29
2023-01-26T08:37:49.868Z,99146.84
2023-01-26T08:39:52.618Z,99141.98
2023-01-26T08:41:55.663Z,99138.57
2023-01-26T08:44:00.140Z,99138.52
2023-01-26T08:46:03.684Z,99141.42
2023-01-26T08:48:06.963Z,99147.27
2023-01-26T08:50:11.182Z,99146.67
2023-01-26T08:52:16.900Z,99143.83
2023-01-26T08:54:20.287Z,99147.29
2023-01-26T08:56:23.460Z,99144.44
2023-01-26T08:58:26.679Z,99148.04
2023-01-26T09:00:30.302Z,99146.04
2023-01-26T09:02:34.281Z,99141.52
2023-01-26T09:04:38.029Z,99151.77
2023-01-26T09:06:40.805Z,99151.38
2023-01-26T09:08:43.676Z,99152.77
2023-01-26T09:10:46.674Z,99155.52
2023-01-26T09:12:50.153Z,99152.05
2023-01-26T09:14:52.866Z,99148.98
2023-01-26T09:16:55.720Z,99145.94
2023-01-26T09:19:01.094Z,99149.22
2023-01-26T09:21:06.664Z,99147.91
2023-01-26T09:23:12.264Z,99150.42
2023-01-26T09:25:16.604Z,99154.36
2023-01-26T09:27:19.282Z,99159.44
2023-01-26T09:29:22.090Z,99162.67
2023-01-26T09:31:25.086Z,99163.98
2023-01-26T09:33:28.669Z,99162.21
2023-01-26T09:35:33.179Z,99160.39
2023-01-26T09:37:35.997Z,99160.72
2023-01-26T09:39:38.880Z,99160.80
2023-01-26T09:42:06.667Z,99156.63
2023-01-26T09:44:43.125Z,99162.77
2023-01-26T09:47:05.622Z,99165.60
2023-01-26T09:49:24.087Z,99168.77
2023-01-26T09:52:10.392Z,99164.30
2023-01-26T09:54:28.483Z,99157.90
2023-01-26T09:56:35.610Z,99158.48
2023-01-26T09:58:42.488Z,99159.85
2023-01-26T10:00:50.297Z,99158.53
2023-01-26T10:03:09.363Z,99156.90
2023-01-26T10:05:25.868Z,99156.52
2023-01-26T10:07:28.929Z,99152.38
2023-01-26T10:09:36.712Z,99151.79
2023-01-26T10:11:45.085Z,99151.08
2023-01-26T10:13:56.491Z,99146.96
2023-01-26T10:16:06.618Z,99144.55
2023-01-26T10:18:35.697Z,99143.73
2023-01-26T10:20:47.940Z,99142.55
2023-01-26T10:23:01.220Z,99140.52
2023-01-26T10:25:20.298Z,99137.92
2023-01-26T10:27:26.112Z,99133.45
2023-01-26T10:29:29.079Z,99132.74
2023-01-26T10:31:33.986Z,99130.50
2023-01-26T10:33:38.139Z,99129.55
2023-01-26T10:35:40.996Z,99130.59
2023-01-26T10:37:46.800Z,99131.41
2023-01-26T10:40:00.055Z,99128.55
2023-01-26T10:42:05.779Z,99125.77
2023-01-26T10:44:11.782Z,99122.38
2023-01-26T10:46:30.779Z,99118.23
2023-01-26T10:48:34.284Z,99115.09
2023-01-26T10:50:37.496Z,99107.38
2023-01-26T10:52:58.752Z,99108.35
2023-01-26T10:55:20.022Z,99106.04
2023-01-26T10:57:28.342Z,99105.43
2023-01-26T10:59:32.878Z,99104.48
2023-01-26T11:02:04.118Z,99106.89
2023-01-26T11:04:12.511Z,99105.02
2023-01-26T11:06:17.836Z,99103.14
2023-01-26T11:08:36.286Z,99102.59
2023-01-26T11:10:51.034Z,99104.73
2023-01-26T11:13:18.123Z,99094.92
2023-01-26T11:15:27.778Z,99096.76
2023-01-26T11:17:39.396Z,99092.61
2023-01-26T11:20:00.240Z,99093.59
2023-01-26T11:22:10.597Z,99092.59
2023-01-26T11:24:29.392Z,99089.14
2023-01-26T11:26:50.693Z,99088.60
2023-01-26T11:29:00.437Z,99083.52
2023-01-26T11:31:03.463Z,99080.70
2023-01-26T11:33:18.255Z,99079.38
2023-01-26T11:35:37.540Z,99082.33
2023-01-26T11:37:56.918Z,99075.61
2023-01-26T11:40:37.961Z,99072.59
2023-01-26T11:43:05.228Z,99072.52
2023-01-26T11:45:32.634Z,99072.34
2023-01-26T11:47:44.747Z,99070.27
2023-01-26T11:50:19.177Z,99069.12
2023-01-26T11:52:46.616Z,99063.11
2023-01-26T11:55:14.138Z,99064.41
2023-01-26T11:57:27.746Z,99063.38
2023-01-26T11:59:41.433Z,99061.95
2023-01-26T12:01:51.167Z,99058.70
2023-01-26T12:03:58.525Z,99054.56
2023-01-26T12:06:07.223Z,99057.59
2023-01-26T12:08:41.076Z,99053.57
2023-01-26T12:11:22.389Z,99048.73
2023-01-26T12:13:49.464Z,99047.70
2023-01-26T12:15:59.408Z,99043.31
2023-01-26T12:18:22.068Z,99043.48
2023-01-26T12:20:50.166Z,99042.10
2023-01-26T12:23:08.296Z,99037.03
2023-01-26T12:25:33.129Z,99034.10
2023-01-26T12:27:43.821Z,99024.92
2023-01-26T12:29:54.815Z,99024.11
2023-01-26T12:32:11.079Z,99020.69
2023-01-26T12:34:15.410Z,99018.30
2023-01-26T12:36:35.182Z,99020.46
2023-01-26T12:38:46.688Z,99023.30
2023-01-26T12:41:10.573Z,99022.48
2023-01-26T12:43:30.627Z,99020.78
2023-01-26T12:45:40.557Z,99022.80
2023-01-26T12:47:57.261Z,99021.44
2023-01-26T12:50:25.287Z,99019.90
2023-01-26T12:52:40.865Z,99015.05
2023-01-26T12:55:04.188Z,99013.26
2023-01-26T12:57:17.011Z,99012.41
2023-01-26T12:59:47.200Z,99010.78
2023-01-26T13:01:51.497Z,99007.44
2023-01-26T13:04:08.895Z,99011.70
2023-01-26T13:06:14.299Z,99011.75
2023-01-26T13:09:00.625Z,99006.73
2023-01-26T13:11:09.263Z,99006.36
2023-01-26T13:13:14.851Z,99007.16
2023-01-26T13:15:22.291Z,99001.42
2023-01-26T13:17:55.993Z,99002.11
2023-01-26T13:20:00.182Z,98996.14
2023-01-26T13:22:03.760Z,98996.54
2023-01-26T13:24:18.426Z,98993.13
2023-01-26T13:26:42.839Z,98993.05
2023-01-26T13:28:47.955Z,98994.98
2023-01-26T13:31:04.283Z,98996.34
2023-01-26T13:33:18.991Z,98994.28
2023-01-26T13:35:24.553Z,98996.06
2023-01-26T13:37:58.306Z,98995.54
2023-01-26T13:40:14.529Z,98993.98
2023-01-26T13:42:52.219Z,98998.02
2023-01-26T13:45:05.755Z,98998.43
2023-01-26T13:47:15.601Z,98996.33
2023-01-26T13:49:39.361Z,98995.05
2023-01-26T13:51:43.753Z,98995.72
2023-01-26T13:54:01.454Z,98994.95
2023-01-26T13:56:32.179Z,98992.73
2023-01-26T13:58:35.018Z,98997.20
2023-01-26T14:00:39.220Z,98993.65
2023-01-26T14:02:49.395Z,98997.92
2023-01-26T14:04:55.651Z,98998.70
2023-01-26T14:07:02.708Z,99005.83
2023-01-26T14:09:12.743Z,99008.70
2023-01-26T14:11:18.968Z,99012.05
2023-01-26T14:13:31.673Z,99011.57
2023-01-26T14:15:35.139Z,99009.92
2023-01-26T14:17:49.284Z,99014.67
2023-01-26T14:19:53.810Z,99014.65
2023-01-26T14:22:01.127Z,99013.11
2023-01-26T14:24:09.205Z,99014.09
2023-01-26T14:26:31.154Z,99015.79
2023-01-26T14:28:37.253Z,99013.27
2023-01-26T14:30:40.553Z,99009.47
2023-01-26T14:32:43.245Z,99011.70
2023-01-26T14:34:54.365Z,99014.44
2023-01-26T14:37:17.556Z,99014.73
2023-01-26T14:39:21.187Z,99014.71
2023-01-26T14:41:33.317Z,99015.11
2023-01-26T14:43:36.024Z,99019.84
2023-01-26T14:45:41.594Z,99021.75
2023-01-26T14:47:45.356Z,99023.60
2023-01-26T14:50:03.141Z,99023.94
2023-01-26T14:52:05.841Z,99022.40
2023-01-26T14:54:21.729Z,99020.55
2023-01-26T14:56:37.277Z,99021.86
2023-01-26T14:58:41.429Z,99024.25
2023-01-26T15:00:50.027Z,99024.44
2023-01-26T15:02:56.808Z,99027.02
2023-01-26T15:05:21.349Z,99026.13
2023-01-26T15:07:57.262Z,99028.14
2023-01-26T15:10:01.589Z,99029.63
2023-01-26T15:12:17.030Z,99031.00
2023-01-26T15:14:36.990Z,99032.52
2023-01-26T15:16:52.751Z,99033.67
2023-01-26T15:19:05.111Z,99030.71
2023-01-26T15:21:15.956Z,99033.95
2023-01-26T15:23:24.454Z,99031.68
2023-01-26T15:25:29.551Z,99030.66
2023-01-26T15:27:35.121Z,99032.20
2023-01-26T15:29:38.698Z,99029.95
2023-01-26T15:31:43.581Z,99028.73
2023-01-26T15:33:52.459Z,99027.36
2023-01-26T15:35:58.636Z,99030.52
2023-01-26T15:38:12.465Z,99034.98
2023-01-26T15:40:17.474Z,99036.20
2023-01-26T15:42:31.732Z,99037.26
2023-01-26T15:44:35.191Z,99037.17
2023-01-26T15:46:38.567Z,99037.94
2023-01-26T15:48:42.351Z,99039.20
2023-01-26T15:50:48.577Z,99037.61
2023-01-26T15:52:53.127Z,99042.24
2023-01-26T15:54:56.546Z,99040.50
2023-01-26T15:57:03.541Z,99040.46
2023-01-26T15:59:06.481Z,99043.41
2023-01-26T16:01:16.619Z,99041.64
2023-01-26T16:03:22.424Z,99043.13
2023-01-26T16:05:27.558Z,99038.79
2023-01-26T16:07:30.385Z,99036.78
2023-01-26T16:09:32.994Z,99039.98
2023-01-26T16:11:44.583Z,99036.26
2023-01-26T16:14:01.994Z,99039.23
2023-01-26T16:16:06.388Z,99042.15
2023-01-26T16:18:10.085Z,99045.44
2023-01-26T16:20:13.351Z,99048.67
2023-01-26T16:22:16.200Z,99047.31
2023-01-26T16:24:19.230Z,99047.70
2023-01-26T16:26:22.655Z,99054.27
2023-01-26T16:28:25.567Z,99051.41
2023-01-26T16:30:28.720Z,99052.52
2023-01-26T16:32:31.593Z,99051.60
2023-01-26T16:34:34.283Z,99056.61
2023-01-26T16:36:37.647Z,99050.98
2023-01-26T16:38:41.018Z,99048.63
2023-01-26T16:40:48.031Z,99047.30
2023-01-26T16:42:55.338Z,99046.94
2023-01-26T16:45:01.172Z,99043.87
2023-01-26T16:47:05.600Z,99043.02
2023-01-26T16:49:13.609Z,99045.63
2023-01-26T16:51:29.874Z,99050.20
2023-01-26T16:53:35.167Z,99052.48
2023-01-26T16:55:38.410Z,99048.83
2023-01-26T16:57:43.782Z,99043.05
2023-01-26T16:59:48.430Z,99044.08
2023-01-26T17:01:52.244Z,99041.02
2023-01-26T17:03:56.784Z,99042.47
2023-01-26T17:06:01.020Z,99043.15
2023-01-26T17:08:04.512Z,99039.95
2023-01-26T17:10:07.925Z,99041.49
2023-01-26T17:12:11.512Z,99040.67
2023-01-26T17:14:14.193Z,99043.48
2023-01-26T17:16:25.094Z,99045.24
2023-01-26T17:18:28.533Z,99044.70
2023-01-26T17:20:32.537Z,99041.58
2023-01-26T17:22:38.300Z,99045.59
2023-01-26T17:24:46.003Z,99044.16
2023-01-26T17:26:48.922Z,99044.16
2023-01-26T17:28:57.482Z,99048.90
2023-01-26T17:31:01.507Z,99053.98
2023-01-26T17:33:05.259Z,99054.69
2023-01-26T17:35:10.077Z,99056.42
2023-01-26T17:37:13.212Z,99060.85
2023-01-26T17:39:20.790Z,99058.36
2023-01-26T17:41:24.716Z,99057.00
2023-01-26T17:43:28.191Z,99055.73
2023-01-26T17:45:31.775Z,99054.11
2023-01-26T17:47:35.867Z,99055.13
2023-01-26T17:49:39.018Z,99059.85
2023-01-26T17:51:42.409Z,99060.08
2023-01-26T17:53:47.921Z,99056.04
2023-01-26T17:55:54.506Z,99054.90
2023-01-26T17:57:57.297Z,99054.82
2023-01-26T18:00:00.568Z,99053.08
2023-01-26T18:02:03.645Z,99060.21
2023-01-26T18:04:06.397Z,99058.16
2023-01-26T18:06:10.502Z,99052.48
2023-01-26T18:08:14.096Z,99054.30
2023-01-26T18:10:17.697Z,99056.42
2023-01-26T18:12:21.658Z,99054.49
2023-01-26T18:14:24.403Z,99060.19
2023-01-26T18:16:28.123Z,99060.52
2023-01-26T18:18:31.133Z,99060.73
2023-01-26T18:20:34.342Z,99059.34
2023-01-26T18:22:37.265Z,99054.34
2023-01-26T18:24:40.822Z,99055.18
2023-01-26T18:26:43.843Z,99056.02
2023-01-26T18:28:47.431Z,99056.29
2023-01-26T18:30:50.378Z,99052.94
2023-01-26T18:32:55.928Z,99055.77
2023-01-26T18:34:58.856Z,99056.54
2023-01-26T18:37:02.513Z,99058.84
2023-01-26T18:39:08.693Z,99059.21
2023-01-26T18:41:15.135Z,99061.73
2023-01-26T18:43:23.034Z,99060.45
2023-01-26T18:45:30.050Z,99062.60
2023-01-26T18:47:35.973Z,99059.56
2023-01-26T18:49:43.745Z,99058.20
2023-01-26T18:51:50.424Z,99057.79
2023-01-26T18:53:53.828Z,99057.87
2023-01-26T18:56:17.395Z,99056.28
2023-01-26T18:58:22.853Z,99050.03
2023-01-26T19:00:27.485Z,99050.20
2023-01-26T19:02:33.808Z,99046.73
2023-01-26T19:04:37.570Z,99046.09
2023-01-26T19:06:44.417Z,99048.52
2023-01-26T19:09:00.869Z,99046.73
2023-01-26T19:11:08.007Z,99049.07
2023-01-26T19:13:13.134Z,99050.30
2023-01-26T19:15:17.726Z,99049.23
2023-01-26T19:17:22.019Z,99050.34
2023-01-26T19:19:24.885Z,99053.27
2023-01-26T19:21:29.144Z,99053.11
2023-01-26T19:23:37.563Z,99051.91
2023-01-26T19:25:41.272Z,99053.48
2023-01-26T19:27:49.028Z,99050.16
2023-01-26T19:29:56.601Z,99046.23
2023-01-26T19:32:03.632Z,99045.58
2023-01-26T19:34:13.258Z,99044.80
2023-01-26T19:36:18.900Z,99046.71
2023-01-26T19:38:23.466Z,99046.61
2023-01-26T19:40:29.042Z,99047.11
2023-01-26T19:42:35.242Z,99049.33
2023-01-26T19:44:39.133Z,99054.02
2023-01-26T19:46:44.750Z,99053.83
2023-01-26T19:48:48.753Z,99053.10
2023-01-26T19:51:11.604Z,99052.39
2023-01-26T19:53:14.542Z,99051.96
2023-01-26T19:55:18.052Z,99049.24
2023-01-26T19:57:23.206Z,99053.00
2023-01-26T19:59:27.401Z,99051.67
2023-01-26T20:01:31.510Z,99053.63
2023-01-26T20:03:36.446Z,99055.91
2023-01-26T20:05:39.881Z,99060.89
2023-01-26T20:07:43.819Z,99056.22
2023-01-26T20:09:50.591Z,99059.29
2023-01-26T20:11:54.072Z,99059.77
2023-01-26T20:14:03.013Z,99059.21
2023-01-26T20:16:08.118Z,99063.36
2023-01-26T20:18:11.369Z,99064.27
2023-01-26T20:20:16.663Z,99066.52
2023-01-26T20:22:24.802Z,99065.39
2023-01-26T20:24:29.041Z,99063.09
2023-01-26T20:26:32.869Z,99066.73
2023-01-26T20:28:36.704Z,99063.42
2023-01-26T20:30:42.737Z,99060.75
2023-01-26T20:32:51.190Z,99056.88
2023-01-26T20:34:58.482Z,99057.49
2023-01-26T20:37:04.979Z,99053.21
2023-01-26T20:39:12.947Z,99049.71
2023-01-26T20:41:21.009Z,99049.73
2023-01-26T20:43:29.125Z,99051.13
2023-01-26T20:45:32.046Z,99052.81
2023-01-26T20:47:40.785Z,99053.81
2023-01-26T20:49:44.622Z,99056.00
2023-01-26T20:51:48.731Z,99053.05
2023-01-26T20:53:51.952Z,99054.17
2023-01-26T20:56:00.284Z,99052.44
2023-01-26T20:58:06.756Z,99054.78
2023-01-26T21:00:13.383Z,99054.56
2023-01-26T21:02:18.788Z,99052.45
2023-01-26T21:04:26.997Z,99052.31
2023-01-26T21:06:30.642Z,99052.48
2023-01-26T21:08:39.488Z,99052.81
2023-01-26T21:10:46.430Z,99051.83
2023-01-26T21:12:49.441Z,99049.62
2023-01-26T21:14:56.805Z,99051.26
2023-01-26T21:17:03.179Z,99050.91
2023-01-26T21:19:06.733Z,99049.86
2023-01-26T21:21:13.155Z,99046.27
2023-01-26T21:23:16.167Z,99044.38
2023-01-26T21:25:18.841Z,99045.39
2023-01-26T21:27:22.402Z,99049.90
2023-01-26T21:29:26.305Z,99044.45
2023-01-26T21:31:31.667Z,99051.63
2023-01-26T21:33:40.345Z,99049.23
2023-01-26T21:35:43.809Z,99052.71
2023-01-26T21:37:48.437Z,99054.17
2023-01-26T21:39:53.726Z,99056.79
2023-01-26T21:41:58.900Z,99056.36
2023-01-26T21:44:07.921Z,99057.34
2023-01-26T21:46:12.131Z,99056.89
2023-01-26T21:48:34.253Z,99056.05
2023-01-26T21:50:56.141Z,99054.60
2023-01-26T21:53:00.030Z,99051.00
2023-01-26T21:55:03.422Z,99050.42
2023-01-26T21:57:28.801Z,99054.48
2023-01-26T21:59:31.618Z,99055.84
2023-01-26T22:01:41.780Z,99060.43
2023-01-26T22:03:44.804Z,99058.08
2023-01-26T22:05:53.724Z,99059.04
2023-01-26T22:07:56.479Z,99059.63
2023-01-26T22:09:59.088Z,99060.42
2023-01-26T22:12:02.220Z,99059.33
2023-01-26T22:14:06.127Z,99057.58
2023-01-26T22:16:09.799Z,99059.50
2023-01-26T22:18:13.942Z,99057.48
2023-01-26T22:20:16.999Z,99055.90
2023-01-26T22:22:19.709Z,99050.45
2023-01-26T22:24:22.578Z,99048.39
2023-01-26T22:26:25.283Z,99050.37
2023-01-26T22:28:28.110Z,99048.44
2023-01-26T22:30:31.378Z,99045.56
2023-01-26T22:32:34.062Z,99045.91
2023-01-26T22:34:36.696Z,99043.27
2023-01-26T22:36:42.253Z,99039.42
2023-01-26T22:38:46.435Z,99039.75
2023-01-26T22:40:49.595Z,99038.92
2023-01-26T22:42:54.092Z,99040.39
2023-01-26T22:44:56.876Z,99037.66
2023-01-26T22:46:59.700Z,99035.80
2023-01-26T22:49:04.630Z,99040.81
2023-01-26T22:51:08.255Z,99033.39
2023-01-26T22:53:11.628Z,99035.13
2023-01-26T22:55:14.531Z,99036.64
2023-01-26T22:57:17.384Z,99038.38
2023-01-26T22:59:20.482Z,99040.91
2023-01-26T23:01:27.510Z,99042.45
2023-01-26T23:03:30.171Z,99041.77
2023-01-26T23:05:34.654Z,99041.73
2023-01-26T23:07:39.580Z,99040.86
2023-01-26T23:09:42.311Z,99040.96
2023-01-26T23:11:45.329Z,99039.83
2023-01-26T23:13:50.098Z,99034.08
2023-01-26T23:15:52.751Z,99033.95
2023-01-26T23:17:55.623Z,99029.48
2023-01-26T23:19:58.257Z,99027.27
2023-01-26T23:22:00.917Z,99021.36
2023-01-26T23:24:05.494Z,99022.86
2023-01-26T23:26:09.299Z,99022.03
2023-01-26T23:28:12.154Z,99026.21
2023-01-26T23:30:17.031Z,99022.70
2023-01-26T23:32:19.727Z,99022.00
2023-01-26T23:34:24.484Z,99019.92
2023-01-26T23:36:27.223Z,99016.20
2023-01-26T23:38:30.773Z,99018.02
2023-01-26T23:40:36.048Z,99017.66
2023-01-26T23:43:00.236Z,99018.60
2023-01-26T23:45:02.074Z,99017.58
2023-01-26T23:47:04.987Z,99019.67
2023-01-26T23:49:09.038Z,99016.20
2023-01-26T23:51:12.257Z,99018.70
2023-01-26T23:53:15.084Z,99015.11
2023-01-26T23:55:18.402Z,99017.98
2023-01-26T23:57:21.384Z,99019.00
2023-01-26T23:59:23.979Z,99020.04
